createdAt,value
2022-09-23T00:02:34.265Z,24.11
2022-09-23T00:07:38.436Z,24.12
2022-09-23T00:12:41.154Z,24.07
2022-09-23T00:17:43.878Z,23.99
2022-09-23T00:22:47.833Z,23.97
2022-09-23T00:27:50.388Z,23.92
2022-09-23T00:32:53.807Z,23.86
2022-09-23T00:37:57.688Z,23.81
2022-09-23T00:43:00.394Z,23.76
2022-09-23T00:48:05.011Z,23.69
2022-09-23T00:53:13.384Z,23.62
2022-09-23T00:58:20.004Z,23.53
2022-09-23T01:03:22.976Z,23.45
2022-09-23T01:08:28.286Z,23.39
2022-09-23T01:13:42.832Z,23.33
2022-09-23T01:18:50.990Z,23.26
2022-09-23T01:24:28.612Z,23.20
2022-09-23T01:30:04.604Z,23.15
2022-09-23T01:35:17.055Z,23.09
2022-09-23T01:40:25.297Z,23.03
2022-09-23T01:45:35.836Z,22.96
2022-09-23T01:50:59.533Z,22.91
2022-09-23T01:56:08.885Z,22.85
2022-09-23T02:01:18.308Z,22.79
2022-09-23T02:06:25.891Z,22.76
2022-09-23T02:11:29.104Z,22.71
2022-09-23T02:16:39.081Z,22.67
2022-09-23T02:21:48.152Z,22.63
2022-09-23T02:26:54.394Z,22.59
2022-09-23T02:32:01.474Z,22.58
2022-09-23T02:37:16.986Z,22.53
2022-09-23T02:42:22.661Z,22.47
2022-09-23T02:47:31.279Z,22.44
2022-09-23T02:52:36.647Z,22.40
2022-09-23T02:57:39.494Z,22.37
2022-09-23T03:03:08.274Z,22.33
2022-09-23T03:08:27.069Z,22.31
2022-09-23T03:13:36.086Z,22.27
2022-09-23T03:18:44.037Z,22.23
2022-09-23T03:23:49.889Z,22.24
2022-09-23T03:28:53.703Z,22.18
2022-09-23T03:34:00.611Z,22.14
2022-09-23T03:39:09.428Z,22.11
2022-09-23T03:44:13.150Z,22.06
2022-09-23T03:49:18.690Z,22.04
2022-09-23T03:54:23.184Z,22.01
2022-09-23T03:59:28.532Z,21.98
2022-09-23T04:04:32.371Z,21.97
2022-09-23T04:09:36.366Z,21.93
2022-09-23T04:14:39.220Z,21.90
2022-09-23T04:19:42.123Z,21.86
2022-09-23T04:24:46.125Z,21.84
2022-09-23T04:29:48.726Z,21.82
2022-09-23T04:34:51.389Z,21.78
2022-09-23T04:39:56.473Z,21.77
2022-09-23T04:44:59.084Z,21.74
2022-09-23T04:50:01.648Z,21.72
2022-09-23T04:55:10.963Z,21.69
2022-09-23T05:00:15.267Z,21.65
2022-09-23T05:05:20.138Z,21.62
2022-09-23T05:10:24.134Z,21.61
2022-09-23T05:15:27.290Z,21.59
2022-09-23T05:20:29.886Z,21.56
2022-09-23T05:25:38.185Z,21.54
2022-09-23T05:30:41.040Z,21.51
2022-09-23T05:35:47.725Z,21.50
2022-09-23T05:40:58.326Z,21.48
2022-09-23T05:46:08.130Z,21.47
2022-09-23T05:51:15.244Z,21.46
2022-09-23T05:56:21.433Z,21.45
2022-09-23T06:01:25.749Z,21.44
2022-09-23T06:06:30.412Z,21.44
2022-09-23T06:11:36.178Z,21.43
2022-09-23T06:16:38.929Z,21.43
2022-09-23T06:21:41.731Z,21.43
2022-09-23T06:26:45.717Z,21.41
2022-09-23T06:31:50.372Z,21.42
2022-09-23T06:36:53.836Z,21.42
2022-09-23T06:41:57.833Z,21.43
2022-09-23T06:47:03.170Z,21.43
2022-09-23T06:52:06.126Z,21.43
2022-09-23T06:57:10.305Z,21.42
2022-09-23T07:02:13.292Z,21.43
2022-09-23T07:07:16.372Z,21.43
2022-09-23T07:12:20.370Z,21.43
2022-09-23T07:17:24.312Z,21.44
2022-09-23T07:22:27.706Z,21.43
2022-09-23T07:27:31.664Z,21.45
2022-09-23T07:32:45.063Z,21.45
2022-09-23T07:37:51.280Z,21.47
2022-09-23T07:42:56.655Z,21.47
2022-09-23T07:47:59.375Z,21.48
2022-09-23T07:53:06.383Z,21.48
2022-09-23T07:58:10.316Z,21.49
2022-09-23T08:03:14.702Z,21.49
2022-09-23T08:08:17.617Z,21.51
2022-09-23T08:13:21.630Z,21.51
2022-09-23T08:18:24.424Z,21.55
2022-09-23T08:23:27.712Z,21.58
2022-09-23T08:28:33.683Z,21.58
2022-09-23T08:33:36.268Z,21.55
2022-09-23T08:38:38.892Z,20.86
2022-09-23T08:43:48.721Z,20.57
2022-09-23T08:48:51.718Z,20.53
2022-09-23T08:53:54.526Z,20.53
2022-09-23T08:59:05.054Z,20.24
2022-09-23T09:04:18.014Z,19.97
2022-09-23T09:09:27.631Z,19.78
2022-09-23T09:14:37.910Z,19.12
2022-09-23T09:19:55.185Z,19.41
2022-09-23T09:25:05.067Z,19.45
2022-09-23T09:30:14.475Z,19.36
2022-09-23T09:35:24.679Z,19.42
2022-09-23T09:40:27.280Z,19.74
2022-09-23T09:45:48.571Z,20.03
2022-09-23T09:50:52.715Z,20.24
2022-09-23T09:56:06.919Z,20.42
2022-09-23T10:01:19.590Z,20.55
2022-09-23T10:06:25.869Z,20.65
2022-09-23T10:11:29.222Z,20.73
2022-09-23T10:16:35.250Z,20.90
2022-09-23T10:21:40.972Z,20.96
2022-09-23T10:26:52.024Z,21.02
2022-09-23T10:32:20.398Z,21.17
2022-09-23T10:37:33.187Z,21.22
2022-09-23T10:43:10.840Z,21.19
2022-09-23T10:48:21.822Z,21.27
2022-09-23T10:53:39.715Z,21.32
2022-09-23T10:59:05.002Z,21.39
2022-09-23T11:04:29.363Z,21.44
2022-09-23T11:09:40.660Z,21.53
2022-09-23T11:15:06.415Z,21.62
2022-09-23T11:20:31.151Z,21.64
2022-09-23T11:25:47.628Z,21.69
2022-09-23T11:31:01.181Z,21.71
2022-09-23T11:36:09.990Z,21.75
2022-09-23T11:41:19.934Z,21.78
2022-09-23T11:46:31.519Z,21.85
2022-09-23T11:51:42.248Z,21.95
2022-09-23T11:56:49.263Z,22.01
2022-09-23T12:01:56.853Z,21.98
2022-09-23T12:07:10.850Z,21.96
2022-09-23T12:12:26.858Z,21.94
2022-09-23T12:18:04.839Z,21.75
2022-09-23T12:23:23.431Z,21.79
2022-09-23T12:28:31.231Z,21.99
2022-09-23T12:33:35.105Z,22.01
2022-09-23T12:38:41.721Z,22.05
2022-09-23T12:43:53.858Z,22.13
2022-09-23T12:49:02.816Z,22.14
2022-09-23T12:54:25.521Z,22.20
2022-09-23T12:59:30.726Z,22.21
2022-09-23T13:05:00.782Z,22.23
2022-09-23T13:10:10.018Z,22.23
2022-09-23T13:15:22.670Z,22.31
2022-09-23T13:20:36.822Z,22.35
2022-09-23T13:25:43.784Z,22.43
2022-09-23T13:30:50.819Z,22.52
2022-09-23T13:35:59.616Z,22.64
2022-09-23T13:41:08.559Z,22.79
2022-09-23T13:46:14.784Z,22.92
2022-09-23T13:51:24.508Z,23.06
2022-09-23T13:56:31.042Z,23.19
2022-09-23T14:01:36.247Z,23.22
2022-09-23T14:06:41.970Z,23.15
2022-09-23T14:11:46.118Z,23.15
2022-09-23T14:16:51.482Z,23.11
2022-09-23T14:21:55.974Z,23.10
2022-09-23T14:27:04.904Z,23.12
2022-09-23T14:32:14.074Z,23.09
2022-09-23T14:37:42.320Z,23.11
2022-09-23T14:42:51.365Z,23.09
2022-09-23T14:47:59.471Z,23.12
2022-09-23T14:53:02.787Z,23.25
2022-09-23T14:58:14.359Z,23.43
2022-09-23T15:03:18.111Z,23.35
2022-09-23T15:08:23.711Z,23.50
2022-09-23T15:13:30.869Z,23.71
2022-09-23T15:18:35.814Z,23.72
2022-09-23T15:23:47.786Z,23.55
2022-09-23T15:28:55.888Z,23.56
2022-09-23T15:33:58.508Z,23.53
2022-09-23T15:39:03.838Z,23.54
2022-09-23T15:44:14.023Z,23.50
2022-09-23T15:49:23.645Z,23.43
2022-09-23T15:54:26.266Z,23.45
2022-09-23T15:59:31.151Z,23.41
2022-09-23T16:04:33.956Z,23.40
2022-09-23T16:09:36.587Z,23.34
2022-09-23T16:14:40.568Z,23.37
2022-09-23T16:19:43.464Z,23.37
2022-09-23T16:24:47.380Z,23.23
2022-09-23T16:29:51.290Z,22.83
2022-09-23T16:34:53.856Z,22.98
2022-09-23T16:39:56.953Z,23.05
2022-09-23T16:45:03.448Z,23.06
2022-09-23T16:50:08.753Z,23.02
2022-09-23T16:55:13.596Z,22.90
2022-09-23T17:00:36.079Z,22.93
2022-09-23T17:05:38.951Z,22.92
2022-09-23T17:10:41.914Z,22.91
2022-09-23T17:15:45.870Z,22.82
2022-09-23T17:20:58.268Z,22.76
2022-09-23T17:26:01.203Z,22.72
2022-09-23T17:31:06.742Z,22.69
2022-09-23T17:36:11.208Z,22.68
2022-09-23T17:41:15.069Z,22.64
2022-09-23T17:46:19.030Z,22.62
2022-09-23T17:51:22.121Z,22.59
2022-09-23T17:56:29.699Z,22.56
2022-09-23T18:01:35.105Z,22.56
2022-09-23T18:06:38.546Z,22.52
2022-09-23T18:11:42.851Z,22.50
2022-09-23T18:16:48.593Z,22.46
2022-09-23T18:21:54.360Z,22.44
2022-09-23T18:26:59.546Z,22.40
2022-09-23T18:32:04.022Z,22.36
2022-09-23T18:37:15.319Z,22.37
2022-09-23T18:42:19.425Z,22.35
2022-09-23T18:47:37.626Z,22.33
2022-09-23T18:52:40.222Z,22.31
2022-09-23T18:57:43.006Z,22.30
2022-09-23T19:02:46.934Z,22.30
2022-09-23T19:07:49.517Z,22.27
2022-09-23T19:12:52.117Z,22.28
2022-09-23T19:17:56.060Z,22.28
2022-09-23T19:22:58.930Z,22.26
2022-09-23T19:28:02.398Z,22.24
2022-09-23T19:33:09.888Z,22.22
2022-09-23T19:38:12.466Z,22.21
2022-09-23T19:43:16.386Z,22.19
2022-09-23T19:48:20.337Z,22.20
2022-09-23T19:53:27.865Z,22.20
2022-09-23T19:58:30.792Z,22.18
2022-09-23T20:08:38.296Z,22.14
2022-09-23T20:13:42.575Z,22.11
2022-09-23T20:18:47.470Z,22.09
2022-09-23T20:23:50.083Z,22.08
2022-09-23T20:28:53.134Z,22.07
2022-09-23T20:33:59.020Z,22.05
2022-09-23T20:39:05.855Z,22.04
2022-09-23T20:44:12.049Z,22.02
2022-09-23T20:49:16.665Z,22.01
2022-09-23T20:54:19.858Z,22.00
2022-09-23T20:59:22.733Z,22.00
2022-09-23T21:04:27.240Z,22.00
2022-09-23T21:09:31.895Z,21.99
2022-09-23T21:14:34.662Z,21.99
2022-09-23T21:19:38.599Z,21.98
2022-09-23T21:25:16.151Z,21.97
2022-09-23T21:30:04.662Z,21.96
2022-09-23T21:35:10.125Z,21.98
2022-09-23T21:40:30.729Z,21.95
2022-09-23T21:45:34.033Z,21.92
2022-09-23T21:50:40.732Z,21.97
2022-09-23T21:55:43.394Z,21.94
2022-09-23T22:00:46.058Z,21.97
2022-09-23T22:06:01.552Z,21.96
2022-09-23T22:11:06.445Z,21.95
2022-09-23T22:16:09.055Z,21.95
2022-09-23T22:21:13.053Z,21.98
2022-09-23T22:26:15.835Z,21.97
2022-09-23T22:31:37.041Z,21.94
2022-09-23T22:36:41.095Z,21.92
2022-09-23T22:41:43.800Z,21.92
2022-09-23T22:46:47.391Z,21.92
2022-09-23T22:51:53.611Z,21.97
2022-09-23T22:56:56.424Z,22.03
2022-09-23T23:02:02.248Z,22.07
2022-09-23T23:07:06.686Z,22.13
2022-09-23T23:12:09.248Z,22.18
2022-09-23T23:17:11.939Z,22.24
2022-09-23T23:22:16.053Z,22.28
2022-09-23T23:27:18.679Z,22.35
2022-09-23T23:32:21.239Z,22.42
2022-09-23T23:37:25.366Z,22.55
2022-09-23T23:42:28.103Z,22.65
2022-09-23T23:47:30.668Z,22.72
2022-09-23T23:52:34.961Z,22.76
2022-09-23T23:57:37.560Z,22.83
